sensor_id;sensor_type;location;lat;lon;timestamp;temperature;humidity
54680;DHT22;40578;53.178;5.846;2022-09-27T00:01:35;9.60;99.90
54680;DHT22;40578;53.178;5.846;2022-09-27T00:04:01;9.70;99.90
54680;DHT22;40578;53.178;5.846;2022-09-27T00:06:28;9.70;99.90
54680;DHT22;40578;53.178;5.846;2022-09-27T00:08:55;9.70;99.90
54680;DHT22;40578;53.178;5.846;2022-09-27T00:13:55;9.60;99.90
54680;DHT22;40578;53.178;5.846;2022-09-27T00:16:26;9.70;99.90
54680;DHT22;40578;53.178;5.846;2022-09-27T00:18:52;9.60;99.90
54680;DHT22;40578;53.178;5.846;2022-09-27T00:21:18;9.70;99.90
54680;DHT22;40578;53.178;5.846;2022-09-27T00:23:44;9.70;99.90
54680;DHT22;40578;53.178;5.846;2022-09-27T00:26:12;9.70;99.90
54680;DHT22;40578;53.178;5.846;2022-09-27T00:28:37;9.60;99.90
54680;DHT22;40578;53.178;5.846;2022-09-27T00:31:03;9.60;99.90
54680;DHT22;40578;53.178;5.846;2022-09-27T00:33:29;9.60;99.90
54680;DHT22;40578;53.178;5.846;2022-09-27T00:36:03;9.60;99.90
54680;DHT22;40578;53.178;5.846;2022-09-27T00:38:28;9.70;99.90
54680;DHT22;40578;53.178;5.846;2022-09-27T00:40:54;9.90;99.90
54680;DHT22;40578;53.178;5.846;2022-09-27T00:43:22;9.60;99.90
54680;DHT22;40578;53.178;5.846;2022-09-27T00:46:00;9.70;99.90
54680;DHT22;40578;53.178;5.846;2022-09-27T00:48:30;10.80;99.90
54680;DHT22;40578;53.178;5.846;2022-09-27T00:51:01;10.80;99.90
54680;DHT22;40578;53.178;5.846;2022-09-27T00:53:33;9.60;99.90
54680;DHT22;40578;53.178;5.846;2022-09-27T00:56:02;9.60;99.90
54680;DHT22;40578;53.178;5.846;2022-09-27T00:58:35;9.60;99.90
54680;DHT22;40578;53.178;5.846;2022-09-27T01:01:04;9.50;99.90
54680;DHT22;40578;53.178;5.846;2022-09-27T01:03:38;9.60;99.90
54680;DHT22;40578;53.178;5.846;2022-09-27T01:06:06;9.60;99.90
54680;DHT22;40578;53.178;5.846;2022-09-27T01:08:32;9.60;99.90
54680;DHT22;40578;53.178;5.846;2022-09-27T01:30:47;9.70;99.90
54680;DHT22;40578;53.178;5.846;2022-09-27T01:34:24;9.70;99.90
54680;DHT22;40578;53.178;5.846;2022-09-27T01:41:38;9.40;99.90
54680;DHT22;40578;53.178;5.846;2022-09-27T01:46:52;9.40;99.90
54680;DHT22;40578;53.178;5.846;2022-09-27T01:49:28;9.40;99.90
54680;DHT22;40578;53.178;5.846;2022-09-27T01:52:00;9.50;99.90
54680;DHT22;40578;53.178;5.846;2022-09-27T01:54:34;9.50;99.90
54680;DHT22;40578;53.178;5.846;2022-09-27T01:57:03;9.40;99.90
54680;DHT22;40578;53.178;5.846;2022-09-27T01:59:39;9.50;99.90
54680;DHT22;40578;53.178;5.846;2022-09-27T02:02:07;9.50;99.90
54680;DHT22;40578;53.178;5.846;2022-09-27T02:04:35;9.60;99.90
54680;DHT22;40578;53.178;5.846;2022-09-27T02:07:26;9.60;99.90
54680;DHT22;40578;53.178;5.846;2022-09-27T02:09:59;9.60;99.90
54680;DHT22;40578;53.178;5.846;2022-09-27T02:12:30;9.60;99.90
54680;DHT22;40578;53.178;5.846;2022-09-27T02:15:10;9.50;99.90
54680;DHT22;40578;53.178;5.846;2022-09-27T02:17:48;9.50;99.90
54680;DHT22;40578;53.178;5.846;2022-09-27T02:20:21;9.40;99.90
54680;DHT22;40578;53.178;5.846;2022-09-27T02:25:39;9.30;99.90
54680;DHT22;40578;53.178;5.846;2022-09-27T02:28:30;9.30;99.90
54680;DHT22;40578;53.178;5.846;2022-09-27T02:30:57;9.30;99.90
54680;DHT22;40578;53.178;5.846;2022-09-27T02:33:28;9.30;99.90
54680;DHT22;40578;53.178;5.846;2022-09-27T02:35:56;9.20;99.90
54680;DHT22;40578;53.178;5.846;2022-09-27T02:38:21;9.20;99.90
54680;DHT22;40578;53.178;5.846;2022-09-27T02:40:48;9.10;99.90
54680;DHT22;40578;53.178;5.846;2022-09-27T02:43:16;9.10;99.90
54680;DHT22;40578;53.178;5.846;2022-09-27T02:48:31;9.20;99.90
54680;DHT22;40578;53.178;5.846;2022-09-27T02:54:15;9.10;99.90
54680;DHT22;40578;53.178;5.846;2022-09-27T03:00:04;9.00;99.90
54680;DHT22;40578;53.178;5.846;2022-09-27T03:02:52;9.00;99.90
54680;DHT22;40578;53.178;5.846;2022-09-27T03:05:25;9.10;99.90
54680;DHT22;40578;53.178;5.846;2022-09-27T03:07:52;8.90;99.90
54680;DHT22;40578;53.178;5.846;2022-09-27T03:10:24;9.00;99.90
54680;DHT22;40578;53.178;5.846;2022-09-27T03:12:50;9.00;99.90
54680;DHT22;40578;53.178;5.846;2022-09-27T03:15:17;9.00;99.90
54680;DHT22;40578;53.178;5.846;2022-09-27T03:17:43;8.90;99.90
54680;DHT22;40578;53.178;5.846;2022-09-27T03:20:09;8.90;99.90
54680;DHT22;40578;53.178;5.846;2022-09-27T03:22:35;9.00;99.90
54680;DHT22;40578;53.178;5.846;2022-09-27T03:25:03;8.90;99.90
54680;DHT22;40578;53.178;5.846;2022-09-27T03:27:30;8.80;99.90
54680;DHT22;40578;53.178;5.846;2022-09-27T03:29:55;8.80;99.90
54680;DHT22;40578;53.178;5.846;2022-09-27T03:32:22;8.90;99.90
54680;DHT22;40578;53.178;5.846;2022-09-27T03:34:47;8.90;99.90
54680;DHT22;40578;53.178;5.846;2022-09-27T03:37:13;8.90;99.90
54680;DHT22;40578;53.178;5.846;2022-09-27T03:39:38;9.00;99.90
54680;DHT22;40578;53.178;5.846;2022-09-27T03:42:05;9.00;99.90
54680;DHT22;40578;53.178;5.846;2022-09-27T03:44:30;9.00;99.90
54680;DHT22;40578;53.178;5.846;2022-09-27T03:46:58;9.00;99.90
54680;DHT22;40578;53.178;5.846;2022-09-27T03:49:23;9.10;99.90
54680;DHT22;40578;53.178;5.846;2022-09-27T03:51:49;9.00;99.90
54680;DHT22;40578;53.178;5.846;2022-09-27T03:54:15;9.00;99.90
54680;DHT22;40578;53.178;5.846;2022-09-27T03:56:40;9.10;99.90
54680;DHT22;40578;53.178;5.846;2022-09-27T03:59:06;9.00;99.90
54680;DHT22;40578;53.178;5.846;2022-09-27T04:01:32;9.90;99.90
54680;DHT22;40578;53.178;5.846;2022-09-27T04:03:59;9.10;99.90
54680;DHT22;40578;53.178;5.846;2022-09-27T04:06:25;9.00;99.90
54680;DHT22;40578;53.178;5.846;2022-09-27T04:08:52;9.10;99.90
54680;DHT22;40578;53.178;5.846;2022-09-27T04:11:18;9.10;99.90
54680;DHT22;40578;53.178;5.846;2022-09-27T04:13:44;9.00;99.90
54680;DHT22;40578;53.178;5.846;2022-09-27T04:16:10;9.00;99.90
54680;DHT22;40578;53.178;5.846;2022-09-27T04:18:36;9.00;99.90
54680;DHT22;40578;53.178;5.846;2022-09-27T04:21:02;9.00;99.90
54680;DHT22;40578;53.178;5.846;2022-09-27T04:23:27;9.00;99.90
54680;DHT22;40578;53.178;5.846;2022-09-27T04:25:54;9.00;99.90
54680;DHT22;40578;53.178;5.846;2022-09-27T04:28:20;9.00;99.90
54680;DHT22;40578;53.178;5.846;2022-09-27T04:30:45;8.90;99.90
54680;DHT22;40578;53.178;5.846;2022-09-27T04:33:11;9.00;99.90
54680;DHT22;40578;53.178;5.846;2022-09-27T04:35:37;9.00;99.90
54680;DHT22;40578;53.178;5.846;2022-09-27T04:38:21;9.00;99.90
54680;DHT22;40578;53.178;5.846;2022-09-27T04:40:49;8.90;99.90
54680;DHT22;40578;53.178;5.846;2022-09-27T04:43:15;8.90;99.90
54680;DHT22;40578;53.178;5.846;2022-09-27T04:45:42;8.90;99.90
54680;DHT22;40578;53.178;5.846;2022-09-27T04:48:09;9.00;99.90
54680;DHT22;40578;53.178;5.846;2022-09-27T04:50:35;8.80;99.90
54680;DHT22;40578;53.178;5.846;2022-09-27T04:53:00;8.90;99.90
54680;DHT22;40578;53.178;5.846;2022-09-27T04:55:26;8.90;99.90
54680;DHT22;40578;53.178;5.846;2022-09-27T04:57:52;8.80;99.90
54680;DHT22;40578;53.178;5.846;2022-09-27T05:00:18;8.60;99.90
54680;DHT22;40578;53.178;5.846;2022-09-27T05:02:44;8.60;99.90
54680;DHT22;40578;53.178;5.846;2022-09-27T05:05:10;8.80;99.90
54680;DHT22;40578;53.178;5.846;2022-09-27T05:07:37;8.60;99.90
54680;DHT22;40578;53.178;5.846;2022-09-27T05:10:03;8.70;99.90
54680;DHT22;40578;53.178;5.846;2022-09-27T05:12:28;8.90;99.90
54680;DHT22;40578;53.178;5.846;2022-09-27T05:14:54;8.80;99.90
54680;DHT22;40578;53.178;5.846;2022-09-27T05:17:20;8.90;99.90
54680;DHT22;40578;53.178;5.846;2022-09-27T05:19:47;8.90;99.90
54680;DHT22;40578;53.178;5.846;2022-09-27T05:22:13;9.00;99.90
54680;DHT22;40578;53.178;5.846;2022-09-27T05:24:39;9.00;99.90
54680;DHT22;40578;53.178;5.846;2022-09-27T05:27:08;8.90;99.90
54680;DHT22;40578;53.178;5.846;2022-09-27T05:29:36;9.10;99.90
54680;DHT22;40578;53.178;5.846;2022-09-27T05:32:03;9.60;99.90
54680;DHT22;40578;53.178;5.846;2022-09-27T05:34:29;9.00;99.90
54680;DHT22;40578;53.178;5.846;2022-09-27T05:36:57;9.00;99.90
54680;DHT22;40578;53.178;5.846;2022-09-27T05:39:23;8.80;99.90
54680;DHT22;40578;53.178;5.846;2022-09-27T05:41:48;8.80;99.90
54680;DHT22;40578;53.178;5.846;2022-09-27T05:44:15;9.20;99.90
54680;DHT22;40578;53.178;5.846;2022-09-27T05:46:41;9.00;99.90
54680;DHT22;40578;53.178;5.846;2022-09-27T05:49:07;8.80;99.90
54680;DHT22;40578;53.178;5.846;2022-09-27T05:51:33;9.00;99.90
54680;DHT22;40578;53.178;5.846;2022-09-27T05:53:58;9.10;99.90
54680;DHT22;40578;53.178;5.846;2022-09-27T05:56:24;8.80;99.90
54680;DHT22;40578;53.178;5.846;2022-09-27T05:58:50;9.00;99.90
54680;DHT22;40578;53.178;5.846;2022-09-27T06:01:16;9.00;99.90
54680;DHT22;40578;53.178;5.846;2022-09-27T06:03:42;9.10;99.90
54680;DHT22;40578;53.178;5.846;2022-09-27T06:06:08;8.90;99.90
54680;DHT22;40578;53.178;5.846;2022-09-27T06:08:36;8.90;99.90
54680;DHT22;40578;53.178;5.846;2022-09-27T06:11:09;9.10;99.90
54680;DHT22;40578;53.178;5.846;2022-09-27T06:13:37;9.10;99.90
54680;DHT22;40578;53.178;5.846;2022-09-27T06:16:07;8.90;99.90
54680;DHT22;40578;53.178;5.846;2022-09-27T06:18:34;9.20;99.90
54680;DHT22;40578;53.178;5.846;2022-09-27T06:21:04;9.20;99.90
54680;DHT22;40578;53.178;5.846;2022-09-27T06:23:30;9.00;99.90
54680;DHT22;40578;53.178;5.846;2022-09-27T06:26:03;9.00;99.90
54680;DHT22;40578;53.178;5.846;2022-09-27T06:28:30;9.20;99.90
54680;DHT22;40578;53.178;5.846;2022-09-27T06:30:56;9.40;99.90
54680;DHT22;40578;53.178;5.846;2022-09-27T06:33:24;9.00;99.90
54680;DHT22;40578;53.178;5.846;2022-09-27T06:35:50;9.20;99.90
54680;DHT22;40578;53.178;5.846;2022-09-27T06:38:17;9.30;99.90
54680;DHT22;40578;53.178;5.846;2022-09-27T06:40:45;9.40;99.90
54680;DHT22;40578;53.178;5.846;2022-09-27T06:43:13;9.40;99.90
54680;DHT22;40578;53.178;5.846;2022-09-27T06:45:39;9.50;99.90
54680;DHT22;40578;53.178;5.846;2022-09-27T06:48:06;9.40;99.90
54680;DHT22;40578;53.178;5.846;2022-09-27T06:50:35;9.30;99.90
54680;DHT22;40578;53.178;5.846;2022-09-27T06:53:02;9.30;99.90
54680;DHT22;40578;53.178;5.846;2022-09-27T06:55:27;9.50;99.90
54680;DHT22;40578;53.178;5.846;2022-09-27T06:57:57;9.50;99.90
54680;DHT22;40578;53.178;5.846;2022-09-27T07:00:42;9.40;99.90
54680;DHT22;40578;53.178;5.846;2022-09-27T07:03:11;9.40;99.90
54680;DHT22;40578;53.178;5.846;2022-09-27T07:05:39;9.30;99.90
54680;DHT22;40578;53.178;5.846;2022-09-27T07:08:06;9.60;99.90
54680;DHT22;40578;53.178;5.846;2022-09-27T07:10:34;9.70;99.90
54680;DHT22;40578;53.178;5.846;2022-09-27T07:13:04;9.60;99.90
54680;DHT22;40578;53.178;5.846;2022-09-27T07:15:31;9.50;99.90
54680;DHT22;40578;53.178;5.846;2022-09-27T07:17:58;9.60;99.90
54680;DHT22;40578;53.178;5.846;2022-09-27T07:20:27;9.70;99.90
54680;DHT22;40578;53.178;5.846;2022-09-27T07:22:56;9.50;99.90
54680;DHT22;40578;53.178;5.846;2022-09-27T07:25:23;9.70;99.90
54680;DHT22;40578;53.178;5.846;2022-09-27T07:27:49;9.40;99.90
54680;DHT22;40578;53.178;5.846;2022-09-27T07:30:18;9.50;99.90
54680;DHT22;40578;53.178;5.846;2022-09-27T07:32:44;9.70;99.90
54680;DHT22;40578;53.178;5.846;2022-09-27T07:35:10;9.70;99.90
54680;DHT22;40578;53.178;5.846;2022-09-27T07:37:36;9.50;99.90
54680;DHT22;40578;53.178;5.846;2022-09-27T07:40:05;9.50;99.90
54680;DHT22;40578;53.178;5.846;2022-09-27T07:42:35;9.80;99.90
54680;DHT22;40578;53.178;5.846;2022-09-27T07:45:06;10.20;99.90
54680;DHT22;40578;53.178;5.846;2022-09-27T07:47:32;9.60;99.90
54680;DHT22;40578;53.178;5.846;2022-09-27T07:49:58;9.60;99.90
54680;DHT22;40578;53.178;5.846;2022-09-27T07:52:24;9.70;99.90
54680;DHT22;40578;53.178;5.846;2022-09-27T07:54:50;9.80;99.90
54680;DHT22;40578;53.178;5.846;2022-09-27T07:57:16;9.90;99.90
54680;DHT22;40578;53.178;5.846;2022-09-27T07:59:42;10.10;99.90
54680;DHT22;40578;53.178;5.846;2022-09-27T08:02:15;10.10;99.90
54680;DHT22;40578;53.178;5.846;2022-09-27T08:04:41;10.10;99.90
54680;DHT22;40578;53.178;5.846;2022-09-27T08:07:13;10.10;99.90
54680;DHT22;40578;53.178;5.846;2022-09-27T08:09:39;10.20;99.90
54680;DHT22;40578;53.178;5.846;2022-09-27T08:12:04;10.20;99.90
54680;DHT22;40578;53.178;5.846;2022-09-27T08:14:30;10.10;99.90
54680;DHT22;40578;53.178;5.846;2022-09-27T08:16:56;10.20;99.90
54680;DHT22;40578;53.178;5.846;2022-09-27T08:19:25;10.20;99.90
54680;DHT22;40578;53.178;5.846;2022-09-27T08:21:51;10.10;99.90
54680;DHT22;40578;53.178;5.846;2022-09-27T08:24:19;10.10;99.90
54680;DHT22;40578;53.178;5.846;2022-09-27T08:26:45;10.20;99.90
54680;DHT22;40578;53.178;5.846;2022-09-27T08:29:11;10.20;99.90
54680;DHT22;40578;53.178;5.846;2022-09-27T08:31:37;10.20;99.90
54680;DHT22;40578;53.178;5.846;2022-09-27T08:34:03;10.30;99.90
54680;DHT22;40578;53.178;5.846;2022-09-27T08:36:29;10.20;99.90
54680;DHT22;40578;53.178;5.846;2022-09-27T08:38:56;10.30;99.90
54680;DHT22;40578;53.178;5.846;2022-09-27T08:44:46;10.30;99.90
54680;DHT22;40578;53.178;5.846;2022-09-27T08:47:28;10.50;99.90
54680;DHT22;40578;53.178;5.846;2022-09-27T08:52:50;10.60;99.90
54680;DHT22;40578;53.178;5.846;2022-09-27T08:55:35;10.60;99.90
54680;DHT22;40578;53.178;5.846;2022-09-27T08:58:11;10.70;99.90
54680;DHT22;40578;53.178;5.846;2022-09-27T09:00:38;10.60;99.90
54680;DHT22;40578;53.178;5.846;2022-09-27T09:03:04;10.50;99.90
54680;DHT22;40578;53.178;5.846;2022-09-27T09:05:32;10.50;99.90
54680;DHT22;40578;53.178;5.846;2022-09-27T09:08:22;10.50;99.90
54680;DHT22;40578;53.178;5.846;2022-09-27T09:11:14;10.50;99.90
54680;DHT22;40578;53.178;5.846;2022-09-27T09:14:19;10.60;99.90
54680;DHT22;40578;53.178;5.846;2022-09-27T09:17:03;10.60;99.90
54680;DHT22;40578;53.178;5.846;2022-09-27T09:31:14;11.10;99.90
54680;DHT22;40578;53.178;5.846;2022-09-27T09:33:49;11.10;99.90
54680;DHT22;40578;53.178;5.846;2022-09-27T09:36:43;11.30;99.90
54680;DHT22;40578;53.178;5.846;2022-09-27T09:39:19;11.30;99.90
54680;DHT22;40578;53.178;5.846;2022-09-27T09:44:51;11.40;99.90
54680;DHT22;40578;53.178;5.846;2022-09-27T09:49:52;11.30;99.90
54680;DHT22;40578;53.178;5.846;2022-09-27T09:52:22;11.30;99.90
54680;DHT22;40578;53.178;5.846;2022-09-27T09:54:56;11.20;99.90
54680;DHT22;40578;53.178;5.846;2022-09-27T09:57:37;11.10;99.90
54680;DHT22;40578;53.178;5.846;2022-09-27T10:00:17;10.80;99.90
54680;DHT22;40578;53.178;5.846;2022-09-27T10:02:47;10.90;99.90
54680;DHT22;40578;53.178;5.846;2022-09-27T10:05:15;10.90;99.90
54680;DHT22;40578;53.178;5.846;2022-09-27T10:07:42;11.00;99.90
54680;DHT22;40578;53.178;5.846;2022-09-27T10:10:13;10.70;99.90
54680;DHT22;40578;53.178;5.846;2022-09-27T10:12:39;10.80;99.90
54680;DHT22;40578;53.178;5.846;2022-09-27T10:15:05;10.80;99.90
54680;DHT22;40578;53.178;5.846;2022-09-27T10:17:37;10.90;99.90
54680;DHT22;40578;53.178;5.846;2022-09-27T10:20:05;10.90;99.90
54680;DHT22;40578;53.178;5.846;2022-09-27T10:22:41;11.00;99.90
54680;DHT22;40578;53.178;5.846;2022-09-27T10:25:09;11.00;99.90
54680;DHT22;40578;53.178;5.846;2022-09-27T10:27:39;11.00;99.90
54680;DHT22;40578;53.178;5.846;2022-09-27T10:30:27;11.10;99.90
54680;DHT22;40578;53.178;5.846;2022-09-27T10:32:58;11.20;99.90
54680;DHT22;40578;53.178;5.846;2022-09-27T10:35:33;11.20;99.90
54680;DHT22;40578;53.178;5.846;2022-09-27T10:40:47;11.20;99.90
54680;DHT22;40578;53.178;5.846;2022-09-27T10:43:30;11.10;41.10
54680;DHT22;40578;53.178;5.846;2022-09-27T10:46:08;10.90;1.00
54680;DHT22;40578;53.178;5.846;2022-09-27T10:48:36;10.80;99.90
54680;DHT22;40578;53.178;5.846;2022-09-27T10:51:05;10.70;99.90
54680;DHT22;40578;53.178;5.846;2022-09-27T10:53:33;10.80;1.00
54680;DHT22;40578;53.178;5.846;2022-09-27T10:56:00;10.80;1.00
54680;DHT22;40578;53.178;5.846;2022-09-27T10:58:34;10.90;48.00
54680;DHT22;40578;53.178;5.846;2022-09-27T11:01:03;11.00;99.90
54680;DHT22;40578;53.178;5.846;2022-09-27T11:03:30;11.70;99.90
54680;DHT22;40578;53.178;5.846;2022-09-27T11:05:57;11.30;99.90
54680;DHT22;40578;53.178;5.846;2022-09-27T11:08:33;11.20;99.90
54680;DHT22;40578;53.178;5.846;2022-09-27T11:11:06;11.40;99.90
54680;DHT22;40578;53.178;5.846;2022-09-27T11:13:37;11.40;99.90
54680;DHT22;40578;53.178;5.846;2022-09-27T11:16:16;12.10;99.90
54680;DHT22;40578;53.178;5.846;2022-09-27T11:19:06;11.00;15.80
54680;DHT22;40578;53.178;5.846;2022-09-27T11:21:58;10.90;78.80
54680;DHT22;40578;53.178;5.846;2022-09-27T11:33:00;11.00;99.90
54680;DHT22;40578;53.178;5.846;2022-09-27T11:39:00;11.20;99.90
54680;DHT22;40578;53.178;5.846;2022-09-27T11:41:41;11.90;99.90
54680;DHT22;40578;53.178;5.846;2022-09-27T11:50:18;11.70;99.90
54680;DHT22;40578;53.178;5.846;2022-09-27T11:53:04;12.00;99.90
54680;DHT22;40578;53.178;5.846;2022-09-27T11:55:44;12.10;1.00
54680;DHT22;40578;53.178;5.846;2022-09-27T11:58:22;12.20;17.50
54680;DHT22;40578;53.178;5.846;2022-09-27T12:03:59;12.10;99.90
54680;DHT22;40578;53.178;5.846;2022-09-27T12:09:15;12.20;99.90
54680;DHT22;40578;53.178;5.846;2022-09-27T12:14:43;12.30;1.00
54680;DHT22;40578;53.178;5.846;2022-09-27T12:17:32;12.20;17.80
54680;DHT22;40578;53.178;5.846;2022-09-27T12:20:02;11.70;99.90
54680;DHT22;40578;53.178;5.846;2022-09-27T12:22:47;11.40;1.00
54680;DHT22;40578;53.178;5.846;2022-09-27T12:25:17;10.90;1.00
54680;DHT22;40578;53.178;5.846;2022-09-27T12:27:53;10.60;99.90
54680;DHT22;40578;53.178;5.846;2022-09-27T12:30:21;10.40;1.00
54680;DHT22;40578;53.178;5.846;2022-09-27T12:33:29;10.40;75.60
54680;DHT22;40578;53.178;5.846;2022-09-27T12:36:00;10.80;99.90
54680;DHT22;40578;53.178;5.846;2022-09-27T12:38:41;11.00;99.90
54680;DHT22;40578;53.178;5.846;2022-09-27T12:41:11;10.90;99.90
54680;DHT22;40578;53.178;5.846;2022-09-27T12:43:44;10.90;99.90
54680;DHT22;40578;53.178;5.846;2022-09-27T12:46:50;10.80;99.90
54680;DHT22;40578;53.178;5.846;2022-09-27T12:51:59;10.50;99.90
54680;DHT22;40578;53.178;5.846;2022-09-27T12:54:41;10.30;99.90
54680;DHT22;40578;53.178;5.846;2022-09-27T12:57:24;9.90;99.90
54680;DHT22;40578;53.178;5.846;2022-09-27T13:00:17;10.30;99.90
54680;DHT22;40578;53.178;5.846;2022-09-27T13:11:22;9.50;99.90
54680;DHT22;40578;53.178;5.846;2022-09-27T13:13:54;9.60;99.90
54680;DHT22;40578;53.178;5.846;2022-09-27T13:16:20;9.60;99.90
54680;DHT22;40578;53.178;5.846;2022-09-27T13:18:56;9.60;99.90
54680;DHT22;40578;53.178;5.846;2022-09-27T13:26:55;10.10;99.90
54680;DHT22;40578;53.178;5.846;2022-09-27T13:29:28;10.90;99.90
54680;DHT22;40578;53.178;5.846;2022-09-27T13:34:39;10.30;99.90
54680;DHT22;40578;53.178;5.846;2022-09-27T13:45:38;10.40;99.90
54680;DHT22;40578;53.178;5.846;2022-09-27T13:51:05;10.60;99.90
54680;DHT22;40578;53.178;5.846;2022-09-27T13:53:39;10.60;99.90
54680;DHT22;40578;53.178;5.846;2022-09-27T13:56:08;10.70;99.90
54680;DHT22;40578;53.178;5.846;2022-09-27T13:58:59;10.70;99.90
54680;DHT22;40578;53.178;5.846;2022-09-27T14:01:29;10.90;99.90
54680;DHT22;40578;53.178;5.846;2022-09-27T14:04:39;10.80;99.90
54680;DHT22;40578;53.178;5.846;2022-09-27T14:07:11;11.10;99.90
54680;DHT22;40578;53.178;5.846;2022-09-27T14:09:39;11.00;99.90
54680;DHT22;40578;53.178;5.846;2022-09-27T14:12:16;11.00;99.90
54680;DHT22;40578;53.178;5.846;2022-09-27T14:14:44;11.10;99.90
54680;DHT22;40578;53.178;5.846;2022-09-27T14:17:12;11.10;99.90
54680;DHT22;40578;53.178;5.846;2022-09-27T14:19:42;11.10;99.90
54680;DHT22;40578;53.178;5.846;2022-09-27T14:22:14;11.90;99.90
54680;DHT22;40578;53.178;5.846;2022-09-27T14:27:13;11.10;59.70
54680;DHT22;40578;53.178;5.846;2022-09-27T14:30:05;11.00;1.00
54680;DHT22;40578;53.178;5.846;2022-09-27T14:32:33;11.50;99.90
54680;DHT22;40578;53.178;5.846;2022-09-27T14:35:19;10.90;99.90
54680;DHT22;40578;53.178;5.846;2022-09-27T14:38:09;10.80;99.90
54680;DHT22;40578;53.178;5.846;2022-09-27T14:40:43;10.90;99.90
54680;DHT22;40578;53.178;5.846;2022-09-27T14:43:18;10.80;99.90
54680;DHT22;40578;53.178;5.846;2022-09-27T14:45:45;10.90;99.90
54680;DHT22;40578;53.178;5.846;2022-09-27T14:48:30;10.80;99.90
54680;DHT22;40578;53.178;5.846;2022-09-27T14:53:41;10.90;1.00
54680;DHT22;40578;53.178;5.846;2022-09-27T14:56:13;11.00;1.00
54680;DHT22;40578;53.178;5.846;2022-09-27T14:58:42;10.80;99.90
54680;DHT22;40578;53.178;5.846;2022-09-27T15:01:19;10.80;1.00
54680;DHT22;40578;53.178;5.846;2022-09-27T15:03:46;10.90;76.20
54680;DHT22;40578;53.178;5.846;2022-09-27T15:06:16;10.90;99.90
54680;DHT22;40578;53.178;5.846;2022-09-27T15:08:43;10.90;99.90
54680;DHT22;40578;53.178;5.846;2022-09-27T15:11:12;11.80;99.90
54680;DHT22;40578;53.178;5.846;2022-09-27T15:13:39;11.00;99.90
54680;DHT22;40578;53.178;5.846;2022-09-27T15:16:15;11.10;99.90
54680;DHT22;40578;53.178;5.846;2022-09-27T15:18:46;11.00;99.90
54680;DHT22;40578;53.178;5.846;2022-09-27T15:21:33;11.00;99.90
54680;DHT22;40578;53.178;5.846;2022-09-27T15:23:59;10.90;99.90
54680;DHT22;40578;53.178;5.846;2022-09-27T15:26:32;10.50;99.90
54680;DHT22;40578;53.178;5.846;2022-09-27T15:28:59;10.40;98.30
54680;DHT22;40578;53.178;5.846;2022-09-27T15:31:38;10.50;99.90
54680;DHT22;40578;53.178;5.846;2022-09-27T15:34:04;10.10;99.90
54680;DHT22;40578;53.178;5.846;2022-09-27T15:36:53;10.20;99.90
54680;DHT22;40578;53.178;5.846;2022-09-27T15:39:33;10.00;99.90
54680;DHT22;40578;53.178;5.846;2022-09-27T15:44:44;10.00;99.90
54680;DHT22;40578;53.178;5.846;2022-09-27T15:52:49;9.60;99.90
54680;DHT22;40578;53.178;5.846;2022-09-27T15:55:21;9.60;99.90
54680;DHT22;40578;53.178;5.846;2022-09-27T15:57:54;9.50;99.90
54680;DHT22;40578;53.178;5.846;2022-09-27T16:00:24;9.40;99.90
54680;DHT22;40578;53.178;5.846;2022-09-27T16:02:51;9.30;99.90
54680;DHT22;40578;53.178;5.846;2022-09-27T16:05:16;9.20;99.90
54680;DHT22;40578;53.178;5.846;2022-09-27T16:07:42;9.10;99.90
54680;DHT22;40578;53.178;5.846;2022-09-27T16:10:18;9.20;99.90
54680;DHT22;40578;53.178;5.846;2022-09-27T16:12:45;9.00;99.90
54680;DHT22;40578;53.178;5.846;2022-09-27T16:15:12;9.00;99.90
54680;DHT22;40578;53.178;5.846;2022-09-27T16:17:38;9.00;99.90
54680;DHT22;40578;53.178;5.846;2022-09-27T16:20:05;8.90;99.90
54680;DHT22;40578;53.178;5.846;2022-09-27T16:22:30;8.80;99.90
54680;DHT22;40578;53.178;5.846;2022-09-27T16:24:56;8.90;99.90
54680;DHT22;40578;53.178;5.846;2022-09-27T16:27:25;9.10;99.90
54680;DHT22;40578;53.178;5.846;2022-09-27T16:29:54;9.10;99.90
54680;DHT22;40578;53.178;5.846;2022-09-27T16:32:20;8.90;99.90
54680;DHT22;40578;53.178;5.846;2022-09-27T16:34:46;8.80;99.90
54680;DHT22;40578;53.178;5.846;2022-09-27T16:37:11;8.90;99.90
54680;DHT22;40578;53.178;5.846;2022-09-27T16:39:37;8.80;99.90
54680;DHT22;40578;53.178;5.846;2022-09-27T16:42:04;8.80;99.90
54680;DHT22;40578;53.178;5.846;2022-09-27T16:44:32;8.80;99.90
54680;DHT22;40578;53.178;5.846;2022-09-27T16:47:04;8.80;99.90
54680;DHT22;40578;53.178;5.846;2022-09-27T16:49:32;8.80;99.90
54680;DHT22;40578;53.178;5.846;2022-09-27T16:52:16;8.80;99.90
54680;DHT22;40578;53.178;5.846;2022-09-27T16:54:42;8.80;99.90
54680;DHT22;40578;53.178;5.846;2022-09-27T16:57:08;8.60;99.90
54680;DHT22;40578;53.178;5.846;2022-09-27T16:59:34;8.60;99.90
54680;DHT22;40578;53.178;5.846;2022-09-27T17:01:59;8.60;99.90
54680;DHT22;40578;53.178;5.846;2022-09-27T17:04:26;8.60;99.90
54680;DHT22;40578;53.178;5.846;2022-09-27T17:06:55;8.70;99.90
54680;DHT22;40578;53.178;5.846;2022-09-27T17:09:21;8.70;99.90
54680;DHT22;40578;53.178;5.846;2022-09-27T17:11:47;8.70;99.90
54680;DHT22;40578;53.178;5.846;2022-09-27T17:14:13;8.60;99.90
54680;DHT22;40578;53.178;5.846;2022-09-27T17:16:42;8.60;99.90
54680;DHT22;40578;53.178;5.846;2022-09-27T17:19:08;8.60;99.90
54680;DHT22;40578;53.178;5.846;2022-09-27T17:21:35;8.70;99.90
54680;DHT22;40578;53.178;5.846;2022-09-27T17:24:01;9.60;99.90
54680;DHT22;40578;53.178;5.846;2022-09-27T17:26:26;8.60;99.90
54680;DHT22;40578;53.178;5.846;2022-09-27T17:28:55;8.60;99.90
54680;DHT22;40578;53.178;5.846;2022-09-27T17:31:22;8.60;99.90
54680;DHT22;40578;53.178;5.846;2022-09-27T17:33:49;8.60;99.90
54680;DHT22;40578;53.178;5.846;2022-09-27T17:36:20;8.50;99.90
54680;DHT22;40578;53.178;5.846;2022-09-27T17:38:48;8.50;99.90
54680;DHT22;40578;53.178;5.846;2022-09-27T17:41:16;8.70;99.90
54680;DHT22;40578;53.178;5.846;2022-09-27T17:43:43;8.50;99.90
54680;DHT22;40578;53.178;5.846;2022-09-27T17:46:21;8.70;99.90
54680;DHT22;40578;53.178;5.846;2022-09-27T17:48:48;8.50;99.90
54680;DHT22;40578;53.178;5.846;2022-09-27T17:51:33;8.60;99.90
54680;DHT22;40578;53.178;5.846;2022-09-27T17:53:59;8.50;99.90
54680;DHT22;40578;53.178;5.846;2022-09-27T17:56:26;8.50;99.90
54680;DHT22;40578;53.178;5.846;2022-09-27T17:58:54;8.50;99.90
54680;DHT22;40578;53.178;5.846;2022-09-27T18:01:22;8.50;99.90
54680;DHT22;40578;53.178;5.846;2022-09-27T18:03:51;8.60;99.90
54680;DHT22;40578;53.178;5.846;2022-09-27T18:06:17;8.60;99.90
54680;DHT22;40578;53.178;5.846;2022-09-27T18:08:43;8.40;99.90
54680;DHT22;40578;53.178;5.846;2022-09-27T18:11:15;8.40;99.90
54680;DHT22;40578;53.178;5.846;2022-09-27T18:13:43;8.40;99.90
54680;DHT22;40578;53.178;5.846;2022-09-27T18:16:13;8.40;99.90
54680;DHT22;40578;53.178;5.846;2022-09-27T18:18:41;8.70;99.90
54680;DHT22;40578;53.178;5.846;2022-09-27T18:21:09;8.40;99.90